createdAt,value
2018-02-23T00:01:50.527Z,64.92
2018-02-23T00:04:19.131Z,65.22
2018-02-23T00:06:47.699Z,64.24
2018-02-23T00:09:16.282Z,63.62
2018-02-23T00:11:45.161Z,63.83
2018-02-23T00:14:13.832Z,63.77
2018-02-23T00:16:42.468Z,64.02
2018-02-23T00:19:10.824Z,63.32
2018-02-23T00:21:39.598Z,63.00
2018-02-23T00:24:08.101Z,63.17
2018-02-23T00:26:36.871Z,63.62
2018-02-23T00:29:05.554Z,63.34
2018-02-23T00:31:34.238Z,64.52
2018-02-23T00:34:02.553Z,65.67
2018-02-23T00:36:30.999Z,64.97
2018-02-23T00:38:59.881Z,65.34
2018-02-23T00:41:28.262Z,65.34
2018-02-23T00:43:56.850Z,65.66
2018-02-23T00:46:25.327Z,66.75
2018-02-23T00:48:53.910Z,65.89
2018-02-23T00:51:22.296Z,65.47
2018-02-23T00:53:50.765Z,66.41
2018-02-23T00:56:19.352Z,66.86
2018-02-23T00:58:47.709Z,67.66
2018-02-23T01:01:16.214Z,69.14
2018-02-23T01:03:45.094Z,70.22
2018-02-23T01:06:13.986Z,70.71
2018-02-23T01:08:42.470Z,70.03
2018-02-23T01:11:10.850Z,69.17
2018-02-23T01:13:39.845Z,70.37
2018-02-23T01:16:08.677Z,69.18
2018-02-23T01:18:37.312Z,69.50
2018-02-23T01:21:06.097Z,68.93
2018-02-23T01:23:34.825Z,71.43
2018-02-23T01:26:03.264Z,71.76
2018-02-23T01:28:31.629Z,71.49
2018-02-23T01:31:00.221Z,68.60
2018-02-23T01:33:28.651Z,67.60
2018-02-23T01:35:57.126Z,68.95
2018-02-23T01:38:25.565Z,68.46
2018-02-23T01:40:54.149Z,68.14
2018-02-23T01:43:22.538Z,68.21
2018-02-23T01:45:51.106Z,67.69
2018-02-23T01:48:19.591Z,66.82
2018-02-23T01:51:00.043Z,67.57
2018-02-23T01:53:28.633Z,67.49
2018-02-23T01:55:57.214Z,67.32
2018-02-23T01:58:26.514Z,67.73
2018-02-23T02:00:54.790Z,67.77
2018-02-23T02:03:23.065Z,66.88
2018-02-23T02:05:51.648Z,67.35
2018-02-23T02:08:20.418Z,67.81
2018-02-23T02:10:49.054Z,68.32
2018-02-23T02:13:17.917Z,67.53
2018-02-23T02:15:46.897Z,66.56
2018-02-23T02:18:15.384Z,66.53
2018-02-23T02:20:43.961Z,67.01
2018-02-23T02:23:12.341Z,66.74
2018-02-23T02:25:41.031Z,66.40
2018-02-23T02:28:09.514Z,65.84
2018-02-23T02:30:38.002Z,67.41
2018-02-23T02:33:06.577Z,66.78
2018-02-23T02:35:35.260Z,67.94
2018-02-23T02:38:03.354Z,67.56
2018-02-23T02:40:32.123Z,65.97
2018-02-23T02:43:00.729Z,66.13
2018-02-23T02:45:29.136Z,65.18
2018-02-23T02:47:57.762Z,64.54
2018-02-23T02:50:26.347Z,64.21
2018-02-23T02:52:55.954Z,64.33
2018-02-23T02:55:24.641Z,64.05
2018-02-23T02:57:53.322Z,64.04
2018-02-23T03:00:21.505Z,63.66
2018-02-23T03:02:50.077Z,64.44
2018-02-23T03:05:18.764Z,63.57
2018-02-23T03:07:47.184Z,63.59
2018-02-23T03:10:15.623Z,63.66
2018-02-23T03:12:44.106Z,64.22
2018-02-23T03:15:12.890Z,63.79
2018-02-23T03:17:41.774Z,65.01
2018-02-23T03:20:10.163Z,64.69
2018-02-23T03:22:38.535Z,64.03
2018-02-23T03:25:06.915Z,64.18
2018-02-23T03:27:35.597Z,64.33
2018-02-23T03:30:03.862Z,64.34
2018-02-23T03:32:32.646Z,64.13
2018-02-23T03:35:01.964Z,63.44
2018-02-23T03:37:30.441Z,64.05
2018-02-23T03:39:59.126Z,64.11
2018-02-23T03:42:27.501Z,65.11
2018-02-23T03:44:55.881Z,65.19
2018-02-23T03:47:24.367Z,64.63
2018-02-23T03:49:52.641Z,64.66
2018-02-23T03:52:21.143Z,64.86
2018-02-23T03:54:49.806Z,64.82
2018-02-23T03:57:17.938Z,64.56
2018-02-23T03:59:46.667Z,64.10
2018-02-23T04:02:15.445Z,63.75
2018-02-23T04:04:43.810Z,64.13
2018-02-23T04:07:12.315Z,64.55
2018-02-23T04:09:40.685Z,64.33
2018-02-23T04:12:08.867Z,63.69
2018-02-23T04:14:37.337Z,63.41
2018-02-23T04:17:05.608Z,63.21
2018-02-23T04:19:34.713Z,63.07
2018-02-23T04:22:03.497Z,63.29
2018-02-23T04:24:32.290Z,63.18
2018-02-23T04:27:00.974Z,63.00
2018-02-23T04:29:29.364Z,63.30
2018-02-23T04:31:57.843Z,63.39
2018-02-23T04:34:26.309Z,63.33
2018-02-23T04:36:54.787Z,63.19
2018-02-23T04:39:23.273Z,63.64
2018-02-23T04:41:51.956Z,63.59
2018-02-23T04:44:20.356Z,63.64
2018-02-23T04:46:48.818Z,63.65
2018-02-23T04:49:17.402Z,63.58
2018-02-23T04:51:45.847Z,63.02
2018-02-23T04:54:14.261Z,63.23
2018-02-23T04:56:42.847Z,63.27
2018-02-23T04:59:11.404Z,63.45
2018-02-23T05:01:39.813Z,63.60
2018-02-23T05:04:08.694Z,63.99
2018-02-23T05:06:37.052Z,63.76
2018-02-23T05:09:05.346Z,63.84
2018-02-23T05:11:33.617Z,63.84
2018-02-23T05:14:02.062Z,63.62
2018-02-23T05:16:30.740Z,63.36
2018-02-23T05:18:59.369Z,63.17
2018-02-23T05:21:28.067Z,62.78
2018-02-23T05:23:56.742Z,62.65
2018-02-23T05:26:25.226Z,63.77
2018-02-23T05:28:53.631Z,63.69
2018-02-23T05:31:22.298Z,63.91
2018-02-23T05:33:50.651Z,64.18
2018-02-23T05:36:19.146Z,64.60
2018-02-23T05:38:47.826Z,64.94
2018-02-23T05:41:16.212Z,65.72
2018-02-23T05:43:44.206Z,67.18
2018-02-23T05:46:12.195Z,66.90
2018-02-23T05:48:40.225Z,65.57
2018-02-23T05:51:08.217Z,64.88
2018-02-23T05:53:36.211Z,64.32
2018-02-23T05:56:04.277Z,64.18
2018-02-23T05:58:32.293Z,63.60
2018-02-23T06:01:00.288Z,63.24
2018-02-23T06:03:28.238Z,63.08
2018-02-23T06:05:56.260Z,62.70
2018-02-23T06:08:24.274Z,62.84
2018-02-23T06:10:52.904Z,63.79
2018-02-23T06:13:21.363Z,64.44
2018-02-23T06:15:55.013Z,63.98
2018-02-23T06:18:28.635Z,64.40
2018-02-23T06:20:56.584Z,64.97
2018-02-23T06:23:26.003Z,64.08
2018-02-23T06:25:54.020Z,63.40
2018-02-23T06:28:22.023Z,63.35
2018-02-23T06:30:50.024Z,63.43
2018-02-23T06:33:18.036Z,63.32
2018-02-23T06:35:46.046Z,63.23
2018-02-23T06:38:14.089Z,64.08
2018-02-23T06:40:42.070Z,64.58
2018-02-23T06:43:10.112Z,63.96
2018-02-23T06:45:38.148Z,64.11
2018-02-23T06:48:06.091Z,66.33
2018-02-23T06:50:34.063Z,64.25
2018-02-23T06:53:02.079Z,62.68
2018-02-23T06:55:30.076Z,62.76
2018-02-23T06:57:57.998Z,63.11
2018-02-23T07:00:25.991Z,64.36
2018-02-23T07:02:53.950Z,64.78
2018-02-23T07:05:21.940Z,65.06
2018-02-23T07:07:49.865Z,64.48
2018-02-23T07:10:17.906Z,66.20
2018-02-23T07:12:45.851Z,68.34
2018-02-23T07:15:13.840Z,67.47
2018-02-23T07:17:41.836Z,66.24
2018-02-23T07:20:09.850Z,64.85
2018-02-23T07:22:37.851Z,63.39
2018-02-23T07:25:06.243Z,62.58
2018-02-23T07:27:34.290Z,62.02
2018-02-23T07:30:02.279Z,62.01
2018-02-23T07:32:30.254Z,61.50
2018-02-23T07:34:58.231Z,63.14
2018-02-23T07:37:26.290Z,64.64
2018-02-23T07:39:54.259Z,64.05
2018-02-23T07:42:22.169Z,64.45
2018-02-23T07:44:50.110Z,64.82
2018-02-23T07:47:18.046Z,64.55
2018-02-23T07:49:46.400Z,64.63
2018-02-23T07:52:14.450Z,65.23
2018-02-23T07:54:42.414Z,65.22
2018-02-23T07:57:10.358Z,65.17
2018-02-23T07:59:38.378Z,63.81
2018-02-23T08:02:06.342Z,63.03
2018-02-23T08:04:34.269Z,63.42
2018-02-23T08:07:02.222Z,61.58
2018-02-23T08:09:30.194Z,61.88
2018-02-23T08:11:58.182Z,60.93
2018-02-23T08:14:26.199Z,61.86
2018-02-23T08:16:54.176Z,61.77
2018-02-23T08:19:22.121Z,60.59
2018-02-23T08:21:50.123Z,61.92
2018-02-23T08:24:18.147Z,59.90
2018-02-23T08:26:46.491Z,58.37
2018-02-23T08:29:14.532Z,57.17
2018-02-23T08:31:42.453Z,57.18
2018-02-23T08:34:10.447Z,57.58
2018-02-23T08:36:38.402Z,57.66
2018-02-23T08:39:06.389Z,57.42
2018-02-23T08:41:34.339Z,57.64
2018-02-23T08:44:02.373Z,56.61
2018-02-23T08:46:30.360Z,56.86
2018-02-23T08:48:58.347Z,56.26
2018-02-23T08:51:26.430Z,55.71
2018-02-23T08:53:54.392Z,56.20
2018-02-23T08:56:22.426Z,57.20
2018-02-23T08:58:50.419Z,56.39
2018-02-23T09:01:18.491Z,56.25
2018-02-23T09:03:46.529Z,56.03
2018-02-23T09:06:14.544Z,55.58
2018-02-23T09:08:42.518Z,55.53
2018-02-23T09:11:10.542Z,54.69
2018-02-23T09:13:38.501Z,54.90
2018-02-23T09:16:06.503Z,56.40
2018-02-23T09:18:34.476Z,56.18
2018-02-23T09:21:02.510Z,54.59
2018-02-23T09:23:30.612Z,55.72
2018-02-23T09:25:58.724Z,55.07
2018-02-23T09:28:27.103Z,54.88
2018-02-23T09:30:55.193Z,53.75
2018-02-23T09:33:23.562Z,52.78
2018-02-23T09:35:51.678Z,53.78
2018-02-23T09:38:19.795Z,54.25
2018-02-23T09:40:47.842Z,53.64
2018-02-23T09:43:15.815Z,52.56
2018-02-23T09:45:43.821Z,53.40
2018-02-23T09:48:11.696Z,52.55
2018-02-23T09:50:39.754Z,53.02
2018-02-23T09:53:07.716Z,51.95
2018-02-23T09:55:35.708Z,52.14
2018-02-23T09:58:03.703Z,52.18
2018-02-23T10:00:31.709Z,52.10
2018-02-23T10:02:59.692Z,51.79
2018-02-23T10:05:27.700Z,50.85
2018-02-23T10:07:55.648Z,51.74
2018-02-23T10:10:23.663Z,52.30
2018-02-23T10:12:51.789Z,51.88
2018-02-23T10:15:19.747Z,51.99
2018-02-23T10:17:47.740Z,52.28
2018-02-23T10:20:15.757Z,50.70
2018-02-23T10:22:43.906Z,51.88
2018-02-23T10:25:12.032Z,51.62
2018-02-23T10:27:40.626Z,52.03
2018-02-23T10:30:09.462Z,52.06
2018-02-23T10:32:37.753Z,51.10
2018-02-23T10:35:05.984Z,51.95
2018-02-23T10:37:34.023Z,50.86
2018-02-23T10:40:02.051Z,58.48
2018-02-23T10:42:30.135Z,55.30
2018-02-23T10:44:58.124Z,52.40
2018-02-23T10:47:26.094Z,52.46
2018-02-23T10:49:54.061Z,54.19
2018-02-23T10:52:22.121Z,52.12
2018-02-23T10:54:50.096Z,52.12
2018-02-23T10:57:18.173Z,49.39
2018-02-23T10:59:46.165Z,47.84
2018-02-23T11:02:14.186Z,48.44
2018-02-23T11:04:42.195Z,47.84
2018-02-23T11:07:11.235Z,48.52
2018-02-23T11:09:40.153Z,48.51
2018-02-23T11:12:08.131Z,49.91
2018-02-23T11:14:36.113Z,50.00
2018-02-23T11:17:05.198Z,50.83
2018-02-23T11:19:33.226Z,49.87
2018-02-23T11:22:01.326Z,48.88
2018-02-23T11:24:29.273Z,48.33
2018-02-23T11:26:57.284Z,49.67
2018-02-23T11:29:25.268Z,48.99
2018-02-23T11:31:53.456Z,48.19
2018-02-23T11:34:21.515Z,47.56
2018-02-23T11:36:49.468Z,49.72
2018-02-23T11:39:17.403Z,49.87
2018-02-23T11:41:45.373Z,50.21
2018-02-23T11:44:13.344Z,48.20
2018-02-23T11:46:42.378Z,48.53
2018-02-23T11:49:12.738Z,50.59
2018-02-23T11:51:40.731Z,50.27
2018-02-23T11:54:08.750Z,50.07
2018-02-23T11:56:36.760Z,52.36
2018-02-23T11:59:05.232Z,49.80
2018-02-23T12:01:34.894Z,48.77
2018-02-23T12:04:02.937Z,47.35
2018-02-23T12:06:30.898Z,48.43
2018-02-23T12:08:58.868Z,49.16
2018-02-23T12:11:26.848Z,46.63
2018-02-23T12:13:54.818Z,46.79
2018-02-23T12:16:22.806Z,47.12
2018-02-23T12:18:50.796Z,46.14
2018-02-23T12:21:18.788Z,46.56
2018-02-23T12:23:46.795Z,46.50
2018-02-23T12:26:14.775Z,45.76
2018-02-23T12:28:42.826Z,45.58
2018-02-23T12:31:10.762Z,44.93
2018-02-23T12:33:40.294Z,46.49
2018-02-23T12:36:08.238Z,46.31
2018-02-23T12:38:37.120Z,44.20
2018-02-23T12:41:05.158Z,46.42
2018-02-23T12:43:33.102Z,45.92
2018-02-23T12:46:01.031Z,46.40
2018-02-23T12:48:28.931Z,45.55
2018-02-23T12:50:56.854Z,46.65
2018-02-23T12:53:24.827Z,47.84
2018-02-23T12:55:52.774Z,46.67
2018-02-23T12:58:20.695Z,45.25
2018-02-23T13:00:48.629Z,47.24
2018-02-23T13:03:16.575Z,46.55
2018-02-23T13:05:44.420Z,47.25
2018-02-23T13:08:12.413Z,47.57
2018-02-23T13:10:40.322Z,48.50
2018-02-23T13:13:08.313Z,48.27
2018-02-23T13:15:36.306Z,47.93
2018-02-23T13:18:04.315Z,48.21
2018-02-23T13:20:32.253Z,48.59
2018-02-23T13:23:00.199Z,48.42
2018-02-23T13:25:28.130Z,52.78
2018-02-23T13:31:11.214Z,48.30
2018-02-23T13:33:39.313Z,46.97
2018-02-23T13:36:08.497Z,48.49
2018-02-23T13:38:36.609Z,46.29
2018-02-23T13:41:10.570Z,48.21
2018-02-23T13:43:38.651Z,46.97
2018-02-23T13:46:06.722Z,45.86
2018-02-23T13:48:34.806Z,48.15
2018-02-23T13:51:02.856Z,46.79
2018-02-23T13:53:36.363Z,48.43
2018-02-23T13:56:04.443Z,47.19
2018-02-23T13:58:32.475Z,48.12
2018-02-23T14:01:00.535Z,50.04
2018-02-23T14:03:28.513Z,50.23
2018-02-23T14:05:56.652Z,49.00
2018-02-23T14:08:24.703Z,47.82
2018-02-23T14:10:52.700Z,48.34
2018-02-23T14:13:20.714Z,47.38
2018-02-23T14:15:48.849Z,47.60
2018-02-23T14:18:16.863Z,48.30
2018-02-23T14:20:44.907Z,48.00
2018-02-23T14:23:12.847Z,47.60
2018-02-23T14:25:40.889Z,49.62
2018-02-23T14:28:08.871Z,48.02
2018-02-23T14:30:36.884Z,48.10
2018-02-23T14:33:04.901Z,48.19
2018-02-23T14:35:33.519Z,48.28
2018-02-23T14:38:01.809Z,48.18
2018-02-23T14:40:29.816Z,48.38
2018-02-23T14:42:57.714Z,48.30
2018-02-23T14:45:25.701Z,48.74
2018-02-23T14:47:53.754Z,49.10
2018-02-23T14:50:33.479Z,49.80
2018-02-23T14:53:01.462Z,50.04
2018-02-23T14:55:29.364Z,49.63
2018-02-23T14:57:58.032Z,50.21
2018-02-23T15:00:25.951Z,50.35
2018-02-23T15:02:53.917Z,50.26
2018-02-23T15:05:22.033Z,50.92
2018-02-23T15:07:50.012Z,50.87
2018-02-23T15:10:18.222Z,51.01
2018-02-23T15:12:46.230Z,50.88
2018-02-23T15:15:14.210Z,49.81
2018-02-23T15:17:42.153Z,50.48
2018-02-23T15:20:10.079Z,50.78
2018-02-23T15:22:38.106Z,51.31
2018-02-23T15:25:06.015Z,51.13
2018-02-23T15:27:34.001Z,52.47
2018-02-23T15:30:01.992Z,52.91
2018-02-23T15:32:30.861Z,53.09
2018-02-23T15:34:58.857Z,53.91
2018-02-23T15:37:26.833Z,53.84
2018-02-23T15:39:55.286Z,54.05
2018-02-23T15:42:25.885Z,53.93
2018-02-23T15:44:53.873Z,54.17
2018-02-23T15:50:30.698Z,54.67
2018-02-23T15:52:58.765Z,55.58
2018-02-23T15:55:27.304Z,55.68
2018-02-23T15:57:59.266Z,55.27
2018-02-23T16:00:27.326Z,54.40
2018-02-23T16:02:55.410Z,55.23
2018-02-23T16:05:23.429Z,54.86
2018-02-23T16:07:51.454Z,54.04
2018-02-23T16:10:19.385Z,54.36
2018-02-23T16:12:48.206Z,55.77
2018-02-23T16:15:16.256Z,55.93
2018-02-23T16:17:44.267Z,55.59
2018-02-23T16:20:13.531Z,55.17
2018-02-23T16:22:43.024Z,55.53
2018-02-23T16:27:47.449Z,55.17
2018-02-23T16:30:16.277Z,55.58
2018-02-23T16:32:45.342Z,55.71
2018-02-23T16:35:13.474Z,56.17
2018-02-23T16:37:44.309Z,56.57
2018-02-23T16:40:13.050Z,55.65
2018-02-23T16:42:40.954Z,56.10
2018-02-23T16:45:08.973Z,56.64
2018-02-23T16:47:36.926Z,55.92
2018-02-23T16:50:04.851Z,55.91
2018-02-23T16:52:32.862Z,54.68
2018-02-23T16:55:00.858Z,54.17
2018-02-23T16:57:28.814Z,53.20
2018-02-23T16:59:56.813Z,53.25
2018-02-23T17:02:24.823Z,52.86
2018-02-23T17:04:52.754Z,52.63
2018-02-23T17:07:20.818Z,52.62
2018-02-23T17:09:48.828Z,52.67
2018-02-23T17:12:16.816Z,53.29
2018-02-23T17:14:44.779Z,53.65
2018-02-23T17:17:12.769Z,53.97
2018-02-23T17:19:40.697Z,54.24
2018-02-23T17:22:08.686Z,55.83
2018-02-23T17:24:36.672Z,56.81
2018-02-23T17:27:04.728Z,57.08
2018-02-23T17:29:32.788Z,56.47
2018-02-23T17:32:00.806Z,56.95
2018-02-23T17:34:28.881Z,57.47
2018-02-23T17:36:56.898Z,57.81
2018-02-23T17:39:24.954Z,57.01
2018-02-23T17:41:53.206Z,57.30
2018-02-23T17:44:21.211Z,56.75
2018-02-23T17:46:49.260Z,56.10
2018-02-23T17:49:18.603Z,56.10
2018-02-23T17:51:46.587Z,54.96
2018-02-23T17:54:14.643Z,55.83
2018-02-23T17:56:42.801Z,56.06
2018-02-23T17:59:10.822Z,56.30
2018-02-23T18:01:39.403Z,55.92
2018-02-23T18:04:07.365Z,55.84
2018-02-23T18:06:35.569Z,55.37
2018-02-23T18:09:03.577Z,56.23
2018-02-23T18:11:31.539Z,56.38
2018-02-23T18:13:59.513Z,55.68
2018-02-23T18:16:27.543Z,56.51
2018-02-23T18:18:55.556Z,56.33
2018-02-23T18:21:23.532Z,56.63
2018-02-23T18:23:51.514Z,58.02
2018-02-23T18:26:19.560Z,57.87
2018-02-23T18:28:47.543Z,59.45
2018-02-23T18:31:15.589Z,58.48
2018-02-23T18:33:44.081Z,61.28
2018-02-23T18:36:12.112Z,61.15
2018-02-23T18:38:40.144Z,61.17
2018-02-23T18:41:08.134Z,61.69
2018-02-23T18:43:36.616Z,61.66
2018-02-23T18:46:04.634Z,59.72
2018-02-23T18:48:32.574Z,59.46
2018-02-23T18:51:01.205Z,59.89
2018-02-23T18:53:29.216Z,60.04
2018-02-23T18:55:57.294Z,60.43
2018-02-23T18:58:26.195Z,61.40
2018-02-23T19:00:54.328Z,59.85
2018-02-23T19:03:22.354Z,60.05
2018-02-23T19:05:50.384Z,61.04
2018-02-23T19:08:19.072Z,60.21
2018-02-23T19:10:47.116Z,60.28
2018-02-23T19:13:15.200Z,61.79
2018-02-23T19:15:43.216Z,60.73
2018-02-23T19:18:11.111Z,60.84
2018-02-23T19:20:38.956Z,62.16
2018-02-23T19:23:06.951Z,62.67
2018-02-23T19:25:34.966Z,61.18
2018-02-23T19:28:03.075Z,61.38
2018-02-23T19:30:31.069Z,61.73
2018-02-23T19:32:59.055Z,61.32
2018-02-23T19:35:31.216Z,62.27
2018-02-23T19:37:59.290Z,62.19
2018-02-23T19:40:27.332Z,61.74
2018-02-23T19:42:55.478Z,61.54
2018-02-23T19:45:24.377Z,62.32
2018-02-23T19:47:53.811Z,62.60
2018-02-23T19:50:22.669Z,62.41
2018-02-23T19:52:50.766Z,64.86
2018-02-23T19:55:18.753Z,65.19
2018-02-23T19:57:46.785Z,64.33
2018-02-23T20:00:16.218Z,62.38
2018-02-23T20:05:28.983Z,62.75
2018-02-23T20:08:01.447Z,63.62
2018-02-23T20:10:29.508Z,62.36
2018-02-23T20:13:00.979Z,62.40
2018-02-23T20:15:30.964Z,62.59
2018-02-23T20:18:05.306Z,61.09
2018-02-23T20:20:35.488Z,60.92
2018-02-23T20:25:41.375Z,60.19
2018-02-23T20:28:10.295Z,59.64
2018-02-23T20:30:39.286Z,60.21
2018-02-23T20:33:07.260Z,62.08
2018-02-23T20:35:35.219Z,63.38
2018-02-23T20:38:03.219Z,62.70
2018-02-23T20:40:31.258Z,61.17
2018-02-23T20:43:01.898Z,61.26
2018-02-23T20:45:30.244Z,62.68
2018-02-23T20:47:58.220Z,63.12
2018-02-23T20:50:26.130Z,61.19
2018-02-23T20:52:54.091Z,60.87
2018-02-23T20:55:22.088Z,62.08
2018-02-23T20:57:50.072Z,61.47
2018-02-23T21:00:18.047Z,60.96
2018-02-23T21:02:46.038Z,59.74
2018-02-23T21:05:13.996Z,59.43
2018-02-23T21:07:42.012Z,59.37
2018-02-23T21:10:10.095Z,59.57
2018-02-23T21:12:38.125Z,59.81
2018-02-23T21:15:06.144Z,59.52
2018-02-23T21:17:34.118Z,59.04
2018-02-23T21:20:02.082Z,58.59
2018-02-23T21:22:30.073Z,60.13
2018-02-23T21:24:58.063Z,60.34
2018-02-23T21:27:26.050Z,60.91
2018-02-23T21:29:53.994Z,60.83
2018-02-23T21:32:22.000Z,60.31
2018-02-23T21:34:49.989Z,59.42
2018-02-23T21:37:17.997Z,60.01
2018-02-23T21:39:46.009Z,59.58
2018-02-23T21:42:14.037Z,60.16
2018-02-23T21:44:48.028Z,59.64
2018-02-23T21:47:16.450Z,59.50
2018-02-23T21:49:44.442Z,61.54
2018-02-23T21:52:12.440Z,60.16
2018-02-23T21:54:40.486Z,62.10
2018-02-23T21:57:08.432Z,62.33
2018-02-23T21:59:36.527Z,62.28
2018-02-23T22:02:04.525Z,61.44
2018-02-23T22:04:32.523Z,61.18
2018-02-23T22:07:00.594Z,62.48
2018-02-23T22:09:28.539Z,62.61
2018-02-23T22:11:56.688Z,62.45
2018-02-23T22:14:24.722Z,62.91
2018-02-23T22:16:52.704Z,63.94
2018-02-23T22:19:20.723Z,63.24
2018-02-23T22:21:48.763Z,62.15
2018-02-23T22:24:16.779Z,63.42
2018-02-23T22:26:44.851Z,63.30
2018-02-23T22:29:12.894Z,62.24
2018-02-23T22:31:40.918Z,62.77
2018-02-23T22:34:08.995Z,63.84
2018-02-23T22:36:37.037Z,62.00
2018-02-23T22:39:05.131Z,63.14
2018-02-23T22:41:33.116Z,62.63
2018-02-23T22:44:01.121Z,63.21
2018-02-23T22:46:29.129Z,62.93
2018-02-23T22:48:57.518Z,62.41
2018-02-23T22:51:25.494Z,64.16
2018-02-23T22:53:53.474Z,64.07
2018-02-23T22:56:21.510Z,62.47
2018-02-23T22:58:49.546Z,61.42
2018-02-23T23:01:17.560Z,61.08
2018-02-23T23:03:45.619Z,60.28
2018-02-23T23:06:13.557Z,60.92
2018-02-23T23:08:41.579Z,60.08
2018-02-23T23:11:09.591Z,59.51
2018-02-23T23:13:37.658Z,61.86
2018-02-23T23:16:05.662Z,62.62
2018-02-23T23:18:33.635Z,61.34
2018-02-23T23:21:01.636Z,60.05
2018-02-23T23:23:29.559Z,59.41
2018-02-23T23:25:57.557Z,60.11
2018-02-23T23:28:25.567Z,60.78
2018-02-23T23:30:53.532Z,60.14
2018-02-23T23:33:21.541Z,59.63
2018-02-23T23:35:49.574Z,60.07
2018-02-23T23:38:17.647Z,59.51
2018-02-23T23:40:45.599Z,58.33
2018-02-23T23:43:13.555Z,59.15
2018-02-23T23:45:41.482Z,58.99
2018-02-23T23:48:09.481Z,58.48
2018-02-23T23:50:37.652Z,58.08
2018-02-23T23:53:05.603Z,58.61
2018-02-23T23:55:33.599Z,58.35
2018-02-23T23:58:01.586Z,57.63
